createdAt,value
2022-10-17T00:00:25.954Z,61.49609
2022-10-17T00:02:26.131Z,61.87305
2022-10-17T00:04:26.060Z,61.77441
2022-10-17T00:06:25.951Z,61.96191
2022-10-17T00:08:25.950Z,62.03516
2022-10-17T00:10:25.991Z,61.99023
2022-10-17T00:12:49.068Z,61.94922
2022-10-17T00:14:49.040Z,61.93945
2022-10-17T00:16:49.094Z,62.22461
2022-10-17T00:18:49.150Z,62.33984
2022-10-17T00:20:49.041Z,62.52344
2022-10-17T00:22:49.052Z,62.44238
2022-10-17T00:24:49.078Z,62.55664
2022-10-17T00:26:49.022Z,62.50684
2022-10-17T00:28:25.969Z,62.51172
2022-10-17T00:30:25.944Z,62.79395
2022-10-17T00:32:26.310Z,63.15625
2022-10-17T00:34:25.983Z,63.21387
2022-10-17T00:36:25.923Z,63.03613
2022-10-17T00:38:25.891Z,62.8623
2022-10-17T00:40:25.921Z,62.80469
2022-10-17T00:43:44.871Z,62.65625
2022-10-17T00:45:44.864Z,62.75488
2022-10-17T00:47:44.914Z,62.84082
2022-10-17T00:49:44.948Z,63.23828
2022-10-17T00:51:44.866Z,63.44727
2022-10-17T00:53:44.881Z,63.68652
2022-10-17T00:55:44.874Z,63.66309
2022-10-17T00:59:01.270Z,63.38867
2022-10-17T01:01:01.509Z,63.4043
2022-10-17T01:03:01.208Z,63.43555
2022-10-17T01:05:01.258Z,63.7373
2022-10-17T01:07:01.237Z,63.40039
2022-10-17T01:09:01.262Z,63.89648
2022-10-17T01:11:01.513Z,63.55176
2022-10-17T01:13:58.699Z,63.50879
2022-10-17T01:15:58.684Z,63.2207
2022-10-17T01:17:58.667Z,63.20996
2022-10-17T01:19:58.684Z,63.53516
2022-10-17T01:21:58.777Z,63.85938
2022-10-17T01:23:58.667Z,64.00586
2022-10-17T01:25:58.686Z,64.11914
2022-10-17T01:28:40.975Z,63.89063
2022-10-17T01:30:40.866Z,63.875
2022-10-17T01:32:40.858Z,63.88477
2022-10-17T01:34:40.876Z,64.32617
2022-10-17T01:36:40.836Z,64.16602
2022-10-17T01:38:40.936Z,64.1377
2022-10-17T01:40:40.918Z,64.38086
2022-10-17T01:42:40.851Z,64.60352
2022-10-17T01:44:03.913Z,64.57227
2022-10-17T01:46:03.933Z,64.81445
2022-10-17T01:48:03.896Z,64.76953
2022-10-17T01:50:03.919Z,64.6875
2022-10-17T01:52:03.932Z,64.47266
2022-10-17T01:54:03.948Z,65.45703
2022-10-17T01:56:03.910Z,65.00586
2022-10-17T01:59:37.440Z,65.13086
2022-10-17T02:01:37.806Z,64.98047
2022-10-17T02:03:37.636Z,65.37012
2022-10-17T02:05:37.635Z,66.26855
2022-10-17T02:07:37.437Z,66.00977
2022-10-17T02:09:37.814Z,66.06445
2022-10-17T02:11:37.512Z,65.44531
2022-10-17T02:14:28.569Z,65.52832
2022-10-17T02:16:28.770Z,65.33691
2022-10-17T02:18:28.555Z,64.91113
2022-10-17T02:20:28.555Z,65.03027
2022-10-17T02:22:28.586Z,64.67383
2022-10-17T02:24:28.596Z,64.89844
2022-10-17T02:26:28.615Z,64.82324
2022-10-17T02:30:17.334Z,64.94531
2022-10-17T02:32:17.601Z,65.17773
2022-10-17T02:34:17.326Z,65.35449
2022-10-17T02:36:17.335Z,65.75586
2022-10-17T02:38:17.323Z,65.43848
2022-10-17T02:40:17.328Z,66.18164
2022-10-17T02:42:17.364Z,67.00488
2022-10-17T02:45:21.411Z,66.05762
2022-10-17T02:47:21.380Z,66.30566
2022-10-17T02:49:21.422Z,65.9834
2022-10-17T02:51:21.377Z,65.52246
2022-10-17T02:53:21.371Z,65.28613
2022-10-17T02:55:21.370Z,65.67383
2022-10-17T02:57:21.429Z,65.88281
2022-10-17T02:59:43.570Z,65.75781
2022-10-17T03:01:43.781Z,65.63965
2022-10-17T03:03:43.538Z,65.69727
2022-10-17T03:05:43.529Z,65.50684
2022-10-17T03:07:43.550Z,66.12402
2022-10-17T03:09:43.547Z,66.17871
2022-10-17T03:11:43.584Z,66.0918
2022-10-17T03:13:43.617Z,65.80664
2022-10-17T03:15:04.219Z,65.83398
2022-10-17T03:17:04.206Z,66.13281
2022-10-17T03:19:04.267Z,66.22461
2022-10-17T03:21:04.207Z,65.78711
2022-10-17T03:23:04.212Z,65.64551
2022-10-17T03:25:04.416Z,66.00684
2022-10-17T03:27:04.280Z,66.06934
2022-10-17T03:30:49.304Z,65.78906
2022-10-17T03:32:49.145Z,66.48633
2022-10-17T03:34:49.204Z,66.32715
2022-10-17T03:36:49.057Z,66.16016
2022-10-17T03:38:49.163Z,66.28418
2022-10-17T03:40:49.042Z,66.99316
2022-10-17T03:42:49.067Z,66.85352
2022-10-17T03:45:47.466Z,66.92285
2022-10-17T03:47:47.582Z,66.16016
2022-10-17T03:49:47.459Z,66.4375
2022-10-17T03:51:47.482Z,66.31934
2022-10-17T03:53:47.482Z,66.52637
2022-10-17T03:55:47.441Z,66.46387
2022-10-17T03:57:47.448Z,66.44043
2022-10-17T04:01:07.910Z,66.70605
2022-10-17T04:03:07.756Z,67.11816
2022-10-17T04:05:07.801Z,67.03711
2022-10-17T04:07:07.711Z,68.16016
2022-10-17T04:09:07.767Z,67.69922
2022-10-17T04:11:07.760Z,67.37988
2022-10-17T04:13:07.717Z,67.62305
2022-10-17T04:15:58.852Z,68.29004
2022-10-17T04:17:58.907Z,68.28125
2022-10-17T04:19:58.880Z,67.56641
2022-10-17T04:21:58.842Z,67.83594
2022-10-17T04:23:58.858Z,67.65332
2022-10-17T04:25:59.012Z,67.44922
2022-10-17T04:27:59.026Z,67.22852
2022-10-17T04:30:55.206Z,67.08008
2022-10-17T04:32:55.233Z,66.94531
2022-10-17T04:34:55.211Z,67.01367
2022-10-17T04:36:55.257Z,67.24902
2022-10-17T04:38:55.222Z,68.18555
2022-10-17T04:40:55.268Z,67.57324
2022-10-17T04:42:55.277Z,67.41406
2022-10-17T04:46:06.964Z,66.70508
2022-10-17T04:48:06.939Z,67.31836
2022-10-17T04:50:06.942Z,67.7793
2022-10-17T04:52:06.978Z,68.1123
2022-10-17T04:54:06.988Z,67.98438
2022-10-17T04:56:06.932Z,68.15723
2022-10-17T04:58:06.905Z,68.44727
2022-10-17T05:01:41.102Z,67.88184
2022-10-17T05:03:40.987Z,68.24121
2022-10-17T05:05:40.927Z,68.23926
2022-10-17T05:07:41.011Z,69.26367
2022-10-17T05:09:40.993Z,68.33301
2022-10-17T05:11:40.939Z,68.03613
2022-10-17T05:13:40.917Z,68.69922
2022-10-17T05:16:51.462Z,68.36035
2022-10-17T05:18:53.369Z,67.63867
2022-10-17T05:20:51.457Z,69.02637
2022-10-17T05:22:51.537Z,68.73145
2022-10-17T05:24:51.475Z,67.90332
2022-10-17T05:26:51.542Z,68.38379
2022-10-17T05:28:51.535Z,68.51855
2022-10-17T05:32:15.418Z,67.89844
2022-10-17T05:34:15.506Z,67.65527
2022-10-17T05:36:15.547Z,68.34766
2022-10-17T05:38:15.420Z,67.97852
2022-10-17T05:40:15.433Z,67.75293
2022-10-17T05:42:15.413Z,66.93652
2022-10-17T05:44:15.379Z,66.01953
2022-10-17T05:47:18.216Z,65.53809
2022-10-17T05:49:44.901Z,65.3584
2022-10-17T05:51:18.171Z,65.82813
2022-10-17T05:53:18.274Z,64.99316
2022-10-17T05:55:18.417Z,67.07422
2022-10-17T05:57:18.256Z,66.36523
2022-10-17T05:59:18.203Z,65.65918
2022-10-17T06:02:17.494Z,67.11426
2022-10-17T06:04:17.288Z,66.99609
2022-10-17T06:06:17.318Z,67.82324
2022-10-17T06:08:17.342Z,68.05566
2022-10-17T06:10:17.309Z,67.82813
2022-10-17T06:12:17.262Z,66.36133
2022-10-17T06:14:17.348Z,67.38672
2022-10-17T06:17:46.913Z,66.36426
2022-10-17T06:19:46.856Z,66.68262
2022-10-17T06:21:46.852Z,67.14551
2022-10-17T06:23:46.899Z,67.48828
2022-10-17T06:25:46.995Z,65.94727
2022-10-17T06:27:47.003Z,66.03711
2022-10-17T06:29:46.841Z,66.34277
2022-10-17T06:32:43.146Z,64.78223
2022-10-17T06:34:43.009Z,65.93652
2022-10-17T06:36:43.026Z,67.43262
2022-10-17T06:38:42.987Z,66.05371
2022-10-17T06:40:42.993Z,66.61426
2022-10-17T06:42:43.032Z,64.83789
2022-10-17T06:44:43.016Z,65.36914
2022-10-17T06:47:20.320Z,65.5752
2022-10-17T06:49:17.319Z,66.14355
2022-10-17T06:51:17.724Z,67.10156
2022-10-17T06:53:17.555Z,67.19434
2022-10-17T06:55:23.222Z,65.44922
2022-10-17T06:57:17.396Z,64.96973
2022-10-17T06:59:17.398Z,65.5918
2022-10-17T07:01:17.655Z,64.68359
2022-10-17T07:03:05.484Z,64.77637
2022-10-17T07:05:05.512Z,65.65723
2022-10-17T07:07:05.498Z,65.2959
2022-10-17T07:09:05.528Z,64.62109
2022-10-17T07:11:05.479Z,63.61621
2022-10-17T07:13:05.475Z,64.02832
2022-10-17T07:15:05.556Z,64.23828
2022-10-17T07:18:19.628Z,62.46289
2022-10-17T07:20:19.633Z,61.15039
2022-10-17T07:22:19.621Z,60.20898
2022-10-17T07:24:19.692Z,59.56738
2022-10-17T07:26:19.605Z,58.81641
2022-10-17T07:28:19.635Z,58.24805
2022-10-17T07:30:19.706Z,57.33398
2022-10-17T07:32:50.575Z,57.57813
2022-10-17T07:34:50.620Z,56.35156
2022-10-17T07:36:50.564Z,57.15527
2022-10-17T07:38:50.560Z,57.89648
2022-10-17T07:40:50.556Z,57.22559
2022-10-17T07:42:50.568Z,56.55859
2022-10-17T07:44:50.564Z,56.59766
2022-10-17T07:48:20.945Z,55.58398
2022-10-17T07:50:21.170Z,55.43359
2022-10-17T07:52:20.852Z,54.40332
2022-10-17T07:54:20.850Z,53.6709
2022-10-17T07:56:20.869Z,53.81934
2022-10-17T07:58:20.841Z,54.46289
2022-10-17T08:00:21.113Z,54.78125
2022-10-17T08:03:30.168Z,53.98145
2022-10-17T08:05:30.152Z,52.79004
2022-10-17T08:07:30.233Z,52.75684
2022-10-17T08:09:30.159Z,53.7002
2022-10-17T08:11:30.141Z,52.59375
2022-10-17T08:13:30.082Z,51.62598
2022-10-17T08:15:32.303Z,51.69043
2022-10-17T08:19:06.399Z,52.16797
2022-10-17T08:21:06.170Z,51.38574
2022-10-17T08:23:06.189Z,50.43066
2022-10-17T08:25:06.121Z,50.68066
2022-10-17T08:27:06.145Z,50.26465
2022-10-17T08:29:06.319Z,49.57617
2022-10-17T08:31:06.140Z,49.73438
2022-10-17T08:33:35.017Z,49.19531
2022-10-17T08:35:35.050Z,48.6123
2022-10-17T08:37:34.992Z,48.73047
2022-10-17T08:39:35.033Z,48.24707
2022-10-17T08:41:35.008Z,49.02246
2022-10-17T08:43:35.857Z,47.56543
2022-10-17T08:45:34.986Z,48.19629
2022-10-17T08:49:12.346Z,47.55664
2022-10-17T08:51:11.492Z,47.32813
2022-10-17T08:53:11.410Z,46.88672
2022-10-17T08:55:11.581Z,46.7666
2022-10-17T08:57:11.429Z,46.36719
2022-10-17T08:59:11.671Z,45.8584
2022-10-17T09:01:13.433Z,45.88574
2022-10-17T09:04:05.997Z,45.00293
2022-10-17T09:06:05.901Z,45.75781
2022-10-17T09:08:06.042Z,45.11035
2022-10-17T09:10:05.883Z,44.46289
2022-10-17T09:12:05.951Z,44.05957
2022-10-17T09:14:05.951Z,44.37012
2022-10-17T09:16:05.876Z,44.39746
2022-10-17T09:18:53.475Z,44.37402
2022-10-17T09:20:53.714Z,43.32422
2022-10-17T09:22:53.765Z,42.19629
2022-10-17T09:24:53.893Z,42.18262
2022-10-17T09:26:53.633Z,42.41992
2022-10-17T09:28:53.832Z,42.53418
2022-10-17T09:30:53.463Z,42.72852
2022-10-17T09:32:53.506Z,43.15234
2022-10-17T09:34:39.566Z,41.55566
2022-10-17T09:36:39.594Z,41.18359
2022-10-17T09:38:39.617Z,40.87109
2022-10-17T09:40:39.618Z,40.3457
2022-10-17T09:42:39.799Z,39.70703
2022-10-17T09:44:39.738Z,39.86914
2022-10-17T09:46:39.589Z,39.23633
2022-10-17T09:49:33.462Z,39.22656
2022-10-17T09:51:33.437Z,39.05762
2022-10-17T09:53:33.474Z,38.27148
2022-10-17T09:55:33.457Z,39.0127
2022-10-17T09:57:33.549Z,38.66699
2022-10-17T09:59:33.442Z,37.12988
2022-10-17T10:01:33.475Z,37.73242
2022-10-17T10:05:03.162Z,36.62891
2022-10-17T10:06:34.947Z,36.79395
2022-10-17T10:08:34.921Z,36.34766
2022-10-17T10:10:34.909Z,36.30371
2022-10-17T10:12:35.099Z,36.27734
2022-10-17T10:14:34.925Z,36.49414
2022-10-17T10:16:34.914Z,36.04785
2022-10-17T10:20:14.213Z,35.03223
2022-10-17T10:22:14.194Z,34.55762
2022-10-17T10:24:14.175Z,34.1543
2022-10-17T10:26:17.813Z,32.83496
2022-10-17T10:28:14.198Z,33.84863
2022-10-17T10:30:14.241Z,33.23242
2022-10-17T10:32:14.162Z,32.14941
2022-10-17T10:34:54.045Z,31.89648
2022-10-17T10:36:54.027Z,32.11523
2022-10-17T10:38:54.018Z,31.9502
2022-10-17T10:40:54.015Z,32.11035
2022-10-17T10:42:54.067Z,32.16797
2022-10-17T10:44:54.147Z,32.55859
2022-10-17T10:46:54.118Z,31.68262
2022-10-17T10:50:22.056Z,30.54297
2022-10-17T10:52:22.080Z,31.72852
2022-10-17T10:54:22.099Z,29.72852
2022-10-17T10:56:22.075Z,29.50098
2022-10-17T10:58:22.033Z,31.31738
2022-10-17T11:00:22.189Z,30.17578
2022-10-17T11:02:22.200Z,31.43066
2022-10-17T11:05:30.654Z,31.69141
2022-10-17T11:07:31.851Z,31.41113
2022-10-17T11:09:33.906Z,31.81738
2022-10-17T11:11:30.657Z,30.69043
2022-10-17T11:13:30.677Z,28.87598
2022-10-17T11:15:30.693Z,29.47559
2022-10-17T11:17:31.831Z,30.40723
2022-10-17T11:20:43.993Z,29.93848
2022-10-17T11:22:44.017Z,30.76074
2022-10-17T11:24:44.007Z,29.60059
2022-10-17T11:26:44.001Z,29.69238
2022-10-17T11:28:44.195Z,28.87402
2022-10-17T11:32:44.014Z,27.85059
2022-10-17T11:36:13.507Z,28.46094
2022-10-17T11:38:13.451Z,29.64453
2022-10-17T11:40:13.526Z,28.06055
2022-10-17T11:42:13.462Z,28.25195
2022-10-17T11:44:13.450Z,28.70898
2022-10-17T11:46:13.519Z,29.05957
2022-10-17T11:48:13.607Z,28.46191
2022-10-17T11:52:03.749Z,27.70898
2022-10-17T11:53:23.826Z,27.99805
2022-10-17T11:55:23.774Z,27.99609
2022-10-17T11:57:24.600Z,28.16016
2022-10-17T11:59:23.779Z,27.02051
2022-10-17T12:01:23.853Z,27.50293
2022-10-17T12:03:23.810Z,28.13672
2022-10-17T12:06:08.577Z,27.07031
2022-10-17T12:08:08.596Z,28.71289
2022-10-17T12:10:08.568Z,28.31836
2022-10-17T12:12:08.576Z,28.58887
2022-10-17T12:14:08.599Z,27.55859
2022-10-17T12:16:08.558Z,27.33301
2022-10-17T12:18:08.592Z,24.7168
2022-10-17T12:21:43.624Z,20.88184
2022-10-17T12:23:40.721Z,21.28711
2022-10-17T12:27:40.760Z,21.32715
2022-10-17T12:29:40.697Z,21.70898
2022-10-17T12:31:40.799Z,21.37207
2022-10-17T12:33:40.780Z,20.66309
2022-10-17T12:36:00.536Z,20.6748
2022-10-17T12:38:00.544Z,20.98828
2022-10-17T12:40:00.530Z,22.90332
2022-10-17T12:42:00.599Z,22.66602
2022-10-17T12:44:00.523Z,22.59082
2022-10-17T12:46:00.433Z,21.55957
2022-10-17T12:48:00.544Z,21.94238
2022-10-17T12:50:00.560Z,21.30664
2022-10-17T12:51:56.755Z,21.29199
2022-10-17T12:53:56.877Z,22.18848
2022-10-17T12:55:56.838Z,22.76758
2022-10-17T12:57:56.764Z,22.11719
2022-10-17T12:59:59.080Z,23.50684
2022-10-17T13:01:56.892Z,23.3457
2022-10-17T13:03:56.749Z,22.97266
2022-10-17T13:06:45.936Z,22.43945
2022-10-17T13:08:45.728Z,22.96582
2022-10-17T13:10:50.225Z,22.80273
2022-10-17T13:12:45.707Z,24.25195
2022-10-17T13:14:45.701Z,25.00488
2022-10-17T13:16:45.763Z,23.92871
2022-10-17T13:18:45.740Z,22.70703
2022-10-17T13:22:10.181Z,23.76465
2022-10-17T13:24:10.139Z,22.64844
2022-10-17T13:26:10.205Z,22.99707
2022-10-17T13:28:10.187Z,23.02344
2022-10-17T13:30:10.361Z,23.91113
2022-10-17T13:32:10.221Z,23.54883
2022-10-17T13:34:10.190Z,23.43164
2022-10-17T13:36:41.042Z,22.5127
2022-10-17T13:38:42.990Z,23.24707
2022-10-17T13:40:50.558Z,24.95801
2022-10-17T13:42:40.949Z,23.94922
2022-10-17T13:44:43.658Z,23.76465
2022-10-17T13:46:41.229Z,23.68555
2022-10-17T13:48:40.963Z,22.59277
2022-10-17T13:50:45.254Z,23.0791
2022-10-17T13:52:07.305Z,22.09277
2022-10-17T13:54:07.367Z,22.03418
2022-10-17T13:56:27.671Z,22.1123
2022-10-17T13:58:07.250Z,22.47656
2022-10-17T14:00:12.390Z,22.27832
2022-10-17T14:02:07.199Z,21.59082
2022-10-17T14:04:19.375Z,22.19824
2022-10-17T14:08:09.810Z,22.56348
2022-10-17T14:09:34.219Z,23.5752
2022-10-17T14:11:34.159Z,23.11914
2022-10-17T14:13:34.302Z,23.35059
2022-10-17T14:15:34.237Z,23.17773
2022-10-17T14:17:34.246Z,23.02539
2022-10-17T14:19:34.162Z,22.77441
2022-10-17T14:23:21.783Z,22.74512
2022-10-17T14:24:52.842Z,22.05078
2022-10-17T14:26:52.844Z,21.69238
2022-10-17T14:28:52.966Z,22.97363
2022-10-17T14:30:58.054Z,23.21777
2022-10-17T14:32:52.901Z,22.99121
2022-10-17T14:34:53.735Z,23.16992
2022-10-17T14:38:06.668Z,23.41699
2022-10-17T14:40:06.526Z,23.90039
2022-10-17T14:42:06.576Z,23.91016
2022-10-17T14:44:06.615Z,25.6709
2022-10-17T14:46:06.469Z,26.79395
2022-10-17T14:48:06.587Z,24.9707
2022-10-17T14:50:06.679Z,26.16113
2022-10-17T14:52:47.725Z,25.16895
2022-10-17T14:54:47.741Z,26.58301
2022-10-17T14:56:47.871Z,25.61426
2022-10-17T14:58:47.833Z,28.06934
2022-10-17T15:00:47.795Z,29.30371
2022-10-17T15:02:47.709Z,28.34375
2022-10-17T15:04:47.996Z,28.93848
2022-10-17T15:08:15.059Z,31.45117
2022-10-17T15:10:15.113Z,29.56055
2022-10-17T15:12:15.062Z,31.46582
2022-10-17T15:14:15.054Z,32.5957
2022-10-17T15:16:15.353Z,33.52246
2022-10-17T15:18:15.062Z,33.9834
2022-10-17T15:20:15.115Z,34.66895
2022-10-17T15:23:16.443Z,34.77441
2022-10-17T15:25:16.508Z,35.5332
2022-10-17T15:27:16.437Z,34.48926
2022-10-17T15:29:16.332Z,35.48535
2022-10-17T15:31:16.291Z,35.36035
2022-10-17T15:33:16.305Z,35.58984
2022-10-17T15:35:16.280Z,36.37109
2022-10-17T15:38:52.641Z,37.55957
2022-10-17T15:40:52.720Z,37.66406
2022-10-17T15:42:52.656Z,38.16211
2022-10-17T15:44:52.716Z,39.17871
2022-10-17T15:46:52.694Z,36.60645
2022-10-17T15:48:52.591Z,35.49414
2022-10-17T15:50:52.446Z,37.14355
2022-10-17T15:53:37.776Z,37.95801
2022-10-17T15:55:37.787Z,38.17578
2022-10-17T15:57:37.587Z,38.6084
2022-10-17T15:59:37.785Z,38.9248
2022-10-17T16:01:37.645Z,39.00977
2022-10-17T16:03:37.599Z,39.27051
2022-10-17T16:05:37.780Z,39.46484
2022-10-17T16:08:57.058Z,40.17285
2022-10-17T16:10:57.068Z,40.41406
2022-10-17T16:12:57.038Z,40.7832
2022-10-17T16:14:57.031Z,40.7959
2022-10-17T16:16:57.054Z,41.05078
2022-10-17T16:18:57.077Z,41.58887
2022-10-17T16:20:57.102Z,41.23926
2022-10-17T16:24:11.019Z,40.33984
2022-10-17T16:26:11.185Z,41.08887
2022-10-17T16:28:10.998Z,41.55859
2022-10-17T16:30:11.142Z,41.38672
2022-10-17T16:32:11.057Z,41.04688
2022-10-17T16:34:11.178Z,41.44922
2022-10-17T16:36:11.457Z,41.75684
2022-10-17T16:39:16.516Z,41.67578
2022-10-17T16:41:16.571Z,42.22363
2022-10-17T16:43:16.385Z,40.6377
2022-10-17T16:45:16.414Z,42.06641
2022-10-17T16:47:16.626Z,41.73535
2022-10-17T16:49:16.795Z,42.64844
2022-10-17T16:51:16.405Z,42.91504
2022-10-17T16:54:21.299Z,42.53125
2022-10-17T16:56:21.346Z,42.58105
2022-10-17T16:58:21.382Z,42.9209
2022-10-17T17:00:21.431Z,41.28613
2022-10-17T17:02:21.749Z,42.33594
2022-10-17T17:04:21.241Z,43.01563
2022-10-17T17:06:21.299Z,43.33008
2022-10-17T17:09:22.152Z,42.28516
2022-10-17T17:11:21.897Z,41.64844
2022-10-17T17:13:21.936Z,41.88379
2022-10-17T17:15:22.140Z,41.41699
2022-10-17T17:17:48.636Z,41.75195
2022-10-17T17:19:22.179Z,40.03516
2022-10-17T17:21:21.896Z,41.96289
2022-10-17T17:24:38.544Z,41.02344
2022-10-17T17:26:38.417Z,40.29395
2022-10-17T17:28:38.580Z,40.78711
2022-10-17T17:30:38.621Z,40.80176
2022-10-17T17:32:38.612Z,40.92676
2022-10-17T17:34:38.527Z,39.2959
2022-10-17T17:36:38.397Z,39.64746
2022-10-17T17:39:42.280Z,39.81445
2022-10-17T17:41:41.800Z,39.43848
2022-10-17T17:43:42.014Z,39.96973
2022-10-17T17:45:41.770Z,39.85645
2022-10-17T17:47:41.866Z,40.51855
2022-10-17T17:49:41.882Z,40.79004
2022-10-17T17:51:41.939Z,40.72168
2022-10-17T17:55:20.496Z,41.11426
2022-10-17T17:57:20.674Z,41.26465
2022-10-17T17:59:20.470Z,40.71387
2022-10-17T18:01:21.016Z,40.61914
2022-10-17T18:03:20.647Z,40.95215
2022-10-17T18:05:20.956Z,41.12891
2022-10-17T18:07:20.494Z,41.06348
2022-10-17T18:10:00.788Z,41.16016
2022-10-17T18:12:00.555Z,41.12695
2022-10-17T18:14:00.576Z,42.16797
2022-10-17T18:16:00.484Z,40.99902
2022-10-17T18:18:00.463Z,41.37305
2022-10-17T18:20:00.501Z,42.30176
2022-10-17T18:22:00.404Z,42.25977
2022-10-17T18:25:01.272Z,42.34863
2022-10-17T18:27:01.195Z,43.01563
2022-10-17T18:29:01.174Z,43.34473
2022-10-17T18:31:01.009Z,43.91895
2022-10-17T18:33:01.261Z,43.67871
2022-10-17T18:35:01.153Z,43.56738
2022-10-17T18:37:00.986Z,43.87305
2022-10-17T18:40:51.021Z,44.51367
2022-10-17T18:42:48.000Z,44.63965
2022-10-17T18:44:48.288Z,44.82031
2022-10-17T18:46:48.287Z,44.89844
2022-10-17T18:48:47.927Z,45.31641
2022-10-17T18:50:48.148Z,44.8584
2022-10-17T18:52:48.039Z,44.51367
2022-10-17T18:55:59.736Z,45.46484
2022-10-17T18:57:59.565Z,45.33496
2022-10-17T18:59:59.464Z,44.94629
2022-10-17T19:01:59.907Z,44.8584
2022-10-17T19:03:59.300Z,44.96973
2022-10-17T19:06:01.375Z,45.57813
2022-10-17T19:07:59.549Z,45.84082
2022-10-17T19:11:16.252Z,45.88867
2022-10-17T19:13:21.799Z,45.97559
2022-10-17T19:15:16.201Z,46.59375
2022-10-17T19:17:16.086Z,46.87988
2022-10-17T19:19:16.330Z,47.34375
2022-10-17T19:21:22.131Z,47.15625
2022-10-17T19:23:16.200Z,47.21094
2022-10-17T19:26:25.250Z,47.49219
2022-10-17T19:28:25.187Z,47.76758
2022-10-17T19:30:25.084Z,47.84082
2022-10-17T19:32:24.950Z,47.625
2022-10-17T19:34:24.807Z,48.00391
2022-10-17T19:36:30.786Z,48.1875
2022-10-17T19:38:24.842Z,48.79199
2022-10-17T19:41:21.446Z,48.97656
2022-10-17T19:43:21.442Z,48.95215
2022-10-17T19:45:21.461Z,48.99902
2022-10-17T19:47:21.975Z,48.95117
2022-10-17T19:49:21.550Z,48.72949
2022-10-17T19:51:21.548Z,49.62305
2022-10-17T19:53:21.559Z,49.90234
2022-10-17T19:55:59.838Z,50.06641
2022-10-17T19:57:59.927Z,50.42578
2022-10-17T19:59:59.760Z,50.98242
2022-10-17T20:01:59.878Z,50.9375
2022-10-17T20:03:59.826Z,50.87012
2022-10-17T20:05:59.788Z,51.01758
2022-10-17T20:07:59.735Z,52.5918
2022-10-17T20:11:59.145Z,52.20215
2022-10-17T20:13:59.142Z,52.32715
2022-10-17T20:15:59.180Z,52.04688
2022-10-17T20:17:59.099Z,51.8916
2022-10-17T20:19:59.301Z,52.69434
2022-10-17T20:21:59.410Z,52.50293
2022-10-17T20:23:59.656Z,52.58594
2022-10-17T20:26:33.482Z,52.31543
2022-10-17T20:28:15.503Z,52.60547
2022-10-17T20:30:15.305Z,52.4502
2022-10-17T20:32:15.324Z,52.60742
2022-10-17T20:34:15.342Z,52.39355
2022-10-17T20:36:15.290Z,52.39258
2022-10-17T20:38:15.298Z,53.21094
2022-10-17T20:40:40.725Z,53.11523
2022-10-17T20:41:46.050Z,53.07617
2022-10-17T20:43:46.043Z,52.71387
2022-10-17T20:45:52.140Z,52.88477
2022-10-17T20:47:52.372Z,52.84277
2022-10-17T20:49:45.898Z,53.06836
2022-10-17T20:51:45.925Z,53.27539
2022-10-17T20:53:45.998Z,53.0127
2022-10-17T20:57:05.091Z,53.1123
2022-10-17T20:58:59.836Z,53.47852
2022-10-17T21:00:59.717Z,53.29199
2022-10-17T21:02:59.731Z,53.74023
2022-10-17T21:04:59.751Z,53.82129
2022-10-17T21:06:59.736Z,53.52246
2022-10-17T21:08:59.729Z,53.50781
2022-10-17T21:12:53.802Z,53.86621
2022-10-17T21:14:34.528Z,53.91406
2022-10-17T21:16:34.773Z,54.27344
2022-10-17T21:18:34.519Z,54.62598
2022-10-17T21:20:34.592Z,54.50293
2022-10-17T21:22:34.499Z,54.62012
2022-10-17T21:24:34.458Z,54.76758
2022-10-17T21:27:33.276Z,54.25977
2022-10-17T21:29:33.264Z,54.54297
2022-10-17T21:31:33.419Z,54.50293
2022-10-17T21:33:33.268Z,54.57422
2022-10-17T21:35:33.256Z,54.83301
2022-10-17T21:37:33.263Z,54.53613
2022-10-17T21:39:33.299Z,54.45703
2022-10-17T21:42:19.263Z,54.58105
2022-10-17T21:44:19.301Z,54.60938
2022-10-17T21:46:19.245Z,55.46582
2022-10-17T21:48:19.458Z,55.39941
2022-10-17T21:50:19.249Z,55.29004
2022-10-17T21:52:19.328Z,55.53125
2022-10-17T21:54:19.339Z,54.97168
2022-10-17T21:56:19.354Z,54.95215
2022-10-17T21:57:41.218Z,55.04395
2022-10-17T21:59:41.096Z,55.35449
2022-10-17T22:01:41.292Z,55.31055
2022-10-17T22:03:46.688Z,55.38867
2022-10-17T22:05:41.273Z,55.66309
2022-10-17T22:07:41.003Z,55.76074
2022-10-17T22:09:41.018Z,56.06055
2022-10-17T22:12:50.441Z,55.85059
2022-10-17T22:14:50.391Z,55.62988
2022-10-17T22:16:50.399Z,55.80469
2022-10-17T22:18:50.459Z,56.09082
2022-10-17T22:20:50.425Z,55.875
2022-10-17T22:22:50.383Z,56.10742
2022-10-17T22:24:50.416Z,56.25293
2022-10-17T22:28:26.653Z,56.24316
2022-10-17T22:30:26.550Z,56.36133
2022-10-17T22:32:26.548Z,56.42676
2022-10-17T22:34:26.627Z,56.73633
2022-10-17T22:36:26.546Z,56.65234
2022-10-17T22:38:26.815Z,57.00293
2022-10-17T22:40:26.663Z,56.61133
2022-10-17T22:43:05.725Z,56.41602
2022-10-17T22:45:05.829Z,56.93066
2022-10-17T22:47:05.742Z,56.97949
2022-10-17T22:49:05.701Z,56.92285
2022-10-17T22:51:05.753Z,56.78027
2022-10-17T22:53:05.707Z,57.04199
2022-10-17T22:55:05.746Z,57.2334
2022-10-17T22:58:57.957Z,57.58105
2022-10-17T23:00:57.979Z,57.625
2022-10-17T23:02:57.930Z,57.97461
2022-10-17T23:04:57.895Z,57.75391
2022-10-17T23:06:57.962Z,57.60645
2022-10-17T23:08:57.891Z,57.0625
2022-10-17T23:10:57.946Z,57.75293
2022-10-17T23:13:41.556Z,58.20996
2022-10-17T23:15:41.535Z,58.24121
2022-10-17T23:17:41.595Z,58.65039
2022-10-17T23:19:41.530Z,58.38574
2022-10-17T23:23:41.539Z,57.67578
2022-10-17T23:25:41.530Z,58.43652
2022-10-17T23:29:02.831Z,60.85645
2022-10-17T23:31:02.684Z,59.87793
2022-10-17T23:33:02.743Z,59.51758
2022-10-17T23:35:02.661Z,58.94238
2022-10-17T23:37:02.717Z,61.54883
2022-10-17T23:39:02.691Z,60.83398
2022-10-17T23:41:02.678Z,60.45508
2022-10-17T23:44:19.435Z,59.56348
2022-10-17T23:46:19.477Z,59.30273
2022-10-17T23:48:19.451Z,59.04004
2022-10-17T23:50:19.410Z,59.00684
2022-10-17T23:52:19.466Z,59.82324
2022-10-17T23:54:19.473Z,60.12793
2022-10-17T23:56:19.443Z,59.7959
2022-10-17T23:59:34.878Z,59.54688
